Time;durP1;ratioP1;P1;durP2;ratioP2;P2;SDS_P1;SDS_P2;PMS_P1;PMS_P2;Temp;Humidity;BMP_temperature;BMP_pressure;BME280_temperature;BME280_humidity;BME280_pressure;Samples;Min_cycle;Max_cycle;Signal;HPM_P1;HPM_P2
2021/04/04 00:02:24;;;;;;;14.37;9.43;;;;;;;1.48;77.42;95416.63;1779981;81;21110;-70
2021/04/04 00:04:52;;;;;;;13.03;8.00;;;;;;;1.42;77.13;95411.37;1765616;81;21567;-69
2021/04/04 00:07:20;;;;;;;14.03;8.13;;;;;;;1.54;77.22;95407.17;1779750;81;21153;-70
2021/04/04 00:09:48;;;;;;;16.53;9.93;;;;;;;1.62;77.22;95410.77;1765678;81;21584;-70
2021/04/04 00:12:15;;;;;;;16.03;9.80;;;;;;;1.63;76.65;95412.06;1779575;81;21158;-70
2021/04/04 00:14:43;;;;;;;17.10;9.83;;;;;;;1.62;76.12;95409.47;1765366;81;21581;-68
2021/04/04 00:17:11;;;;;;;17.80;10.00;;;;;;;1.62;75.78;95412.06;1780179;81;21555;-68
2021/04/04 00:19:40;;;;;;;15.93;9.33;;;;;;;1.53;75.67;95416.70;1765704;81;21140;-67
2021/04/04 00:22:09;;;;;;;28.33;17.70;;;;;;;1.42;76.05;95410.50;1765719;81;21151;-68
2021/04/04 00:24:38;;;;;;;30.47;16.27;;;;;;;1.30;76.98;95417.26;1778403;80;21165;-68
2021/04/04 00:27:06;;;;;;;25.77;14.27;;;;;;;1.21;76.96;95428.84;1759844;81;21140;-68
2021/04/04 00:29:34;;;;;;;21.80;12.63;;;;;;;1.15;77.16;95430.47;1776518;81;21137;-68
2021/04/04 00:32:01;;;;;;;18.50;10.90;;;;;;;1.10;77.54;95432.98;1759721;81;21598;-68
2021/04/04 00:34:29;;;;;;;18.20;11.47;;;;;;;1.10;77.32;95438.19;1776196;81;21287;-67
2021/04/04 00:36:57;;;;;;;22.83;13.60;;;;;;;1.04;77.71;95442.87;1759813;81;21152;-67
2021/04/04 00:39:27;;;;;;;19.70;12.47;;;;;;;1.02;77.57;95445.87;1776139;81;21727;-68
2021/04/04 00:41:54;;;;;;;15.20;7.53;;;;;;;0.96;77.89;95445.78;1759911;81;21140;-67
2021/04/04 00:44:22;;;;;;;12.53;8.47;;;;;;;0.92;77.37;95441.81;1759829;81;21156;-67
2021/04/04 00:46:49;;;;;;;12.90;8.10;;;;;;;0.91;77.36;95446.53;1759628;81;21148;-67
2021/04/04 00:49:17;;;;;;;14.00;8.63;;;;;;;0.81;77.40;95443.81;1759705;81;21133;-67
2021/04/04 00:51:44;;;;;;;13.90;7.47;;;;;;;0.77;77.42;95445.89;1759775;81;21570;-67
2021/04/04 00:54:12;;;;;;;14.77;8.47;;;;;;;0.83;77.44;95443.41;1759619;81;21144;-67
2021/04/04 00:56:40;;;;;;;11.27;7.17;;;;;;;0.82;77.36;95443.37;1730067;81;21117;-67
2021/04/04 00:59:09;;;;;;;12.77;7.90;;;;;;;0.87;77.18;95441.73;1759793;81;21147;-68
2021/04/04 01:01:37;;;;;;;16.17;8.63;;;;;;;0.74;77.09;95441.09;1759637;81;21149;-68
2021/04/04 01:04:05;;;;;;;11.33;6.83;;;;;;;0.60;76.84;95443.00;1730707;81;21554;-68
2021/04/04 01:06:32;;;;;;;16.40;10.17;;;;;;;0.52;76.92;95443.73;1760229;81;21120;-68
2021/04/04 01:09:00;;;;;;;11.77;7.13;;;;;;;0.44;77.90;95446.20;1776128;81;21261;-68
2021/04/04 01:11:41;;;;;;;15.77;9.47;;;;;;;0.43;78.03;95444.46;1759807;81;21124;-67
2021/04/04 01:14:24;;;;;;;16.23;8.60;;;;;;;0.36;77.94;95444.77;1776126;81;21114;-70
2021/04/04 01:17:04;;;;;;;13.70;7.63;;;;;;;0.39;77.76;95446.53;1820158;79;23252;-69
2021/04/04 01:20:00;;;;;;;17.32;9.78;;;;;;;0.35;77.63;95451.20;1793881;80;21555;-69
2021/04/04 01:23:03;;;;;;;12.07;6.93;;;;;;;0.33;77.66;95447.73;1778244;80;21144;-69
2021/04/04 01:26:05;;;;;;;14.90;7.83;;;;;;;0.38;77.53;95448.70;1793505;80;21173;-69
2021/04/04 01:28:38;;;;;;;16.73;9.10;;;;;;;0.29;77.08;95451.98;1793387;80;21101;-69
2021/04/04 01:31:08;;;;;;;21.60;11.73;;;;;;;0.26;77.42;95453.23;1793737;80;21137;-69
2021/04/04 01:33:38;;;;;;;22.83;10.77;;;;;;;0.32;77.22;95450.73;1793575;80;21583;-69
2021/04/04 01:36:11;;;;;;;17.33;10.00;;;;;;;0.38;77.20;95456.05;1762955;80;21157;-69
2021/04/04 01:38:42;;;;;;;19.65;10.13;;;;;;;0.39;77.39;95450.00;1793968;80;21259;-69
2021/04/04 01:41:30;;;;;;;14.77;9.40;;;;;;;0.28;78.31;95455.83;1793756;80;21697;-69
2021/04/04 01:44:03;;;;;;;14.47;8.43;;;;;;;0.10;78.87;95456.36;1793428;80;21541;-69
2021/04/04 01:46:32;;;;;;;14.07;8.90;;;;;;;0.03;79.44;95432.47;1793663;80;21161;-69
2021/04/04 01:49:01;;;;;;;16.00;9.27;;;;;;;0.12;78.77;95448.19;1793504;80;21144;-69
2021/04/04 01:51:30;;;;;;;12.80;7.67;;;;;;;0.26;78.58;95451.93;1793524;80;21693;-69
2021/04/04 01:54:03;;;;;;;11.70;6.70;;;;;;;0.32;78.24;95444.67;1793786;80;21298;-69
2021/04/04 01:56:31;;;;;;;28.00;12.53;;;;;;;0.19;77.70;95451.36;1793786;80;21323;-69
2021/04/04 01:59:00;;;;;;;14.30;7.67;;;;;;;0.00;78.94;95452.74;1793562;80;21287;-69
2021/04/04 02:01:29;;;;;;;13.43;8.37;;;;;;;0.01;78.54;95456.20;1793549;80;21161;-69
2021/04/04 02:04:02;;;;;;;16.47;9.60;;;;;;;0.03;78.37;95451.50;1793741;80;21243;-69
2021/04/04 02:06:31;;;;;;;16.67;9.87;;;;;;;0.02;78.19;95456.64;1793637;80;21283;-69
2021/04/04 02:09:01;;;;;;;9.93;5.40;;;;;;;-0.08;79.46;95456.45;1793529;80;21129;-69
2021/04/04 02:11:32;;;;;;;14.77;8.33;;;;;;;-0.20;79.42;95456.63;1793334;80;21144;-69
2021/04/04 02:14:05;;;;;;;15.80;9.13;;;;;;;-0.32;80.70;95450.79;1793613;80;21156;-69
2021/04/04 02:16:37;;;;;;;14.15;8.55;;;;;;;-0.33;80.06;95460.30;1783624;80;21599;-69
2021/04/04 02:19:07;;;;;;;14.53;8.97;;;;;;;-0.23;79.72;95458.34;1779841;81;21125;-69
2021/04/04 02:21:35;;;;;;;15.67;8.53;;;;;;;-0.16;79.46;95462.34;1780099;81;21130;-69
2021/04/04 02:24:08;;;;;;;14.33;9.07;;;;;;;-0.22;79.09;95467.86;1780119;81;21563;-69
2021/04/04 02:26:36;;;;;;;16.97;9.17;;;;;;;-0.22;79.30;95466.56;1779869;81;21138;-69
2021/04/04 02:29:06;;;;;;;13.67;8.50;;;;;;;-0.20;78.96;95464.01;1779369;81;21121;-69
2021/04/04 02:31:44;;;;;;;17.73;10.10;;;;;;;-0.13;79.00;95468.45;1779230;81;21267;-69
2021/04/04 02:34:18;;;;;;;18.13;9.93;;;;;;;-0.13;79.03;95460.67;1758108;81;21134;-69
2021/04/04 02:36:46;;;;;;;18.20;9.07;;;;;;;-0.17;79.76;95464.49;1779621;81;21142;-69
2021/04/04 02:39:28;;;;;;;15.40;9.20;;;;;;;-0.28;80.18;95469.44;1779849;81;21535;-69
2021/04/04 02:41:58;;;;;;;20.20;10.43;;;;;;;-0.36;79.71;95471.00;1757641;81;21557;-69
2021/04/04 02:44:29;;;;;;;21.77;11.63;;;;;;;-0.42;79.96;95470.88;1779290;81;21585;-69
2021/04/04 02:47:02;;;;;;;20.33;9.60;;;;;;;-0.47;80.71;95476.83;1779298;80;21545;-69
2021/04/04 02:49:34;;;;;;;18.57;9.05;;;;;;;-0.40;80.56;95476.95;1779504;81;21256;-69
2021/04/04 02:52:06;;;;;;;18.77;10.13;;;;;;;-0.27;80.16;95477.69;1779500;81;21279;-69
2021/04/04 02:54:36;;;;;;;17.90;9.47;;;;;;;-0.11;79.82;95473.68;1778883;80;21276;-69
2021/04/04 02:57:08;;;;;;;14.00;8.47;;;;;;;-0.03;79.26;95472.98;1779540;81;21133;-69
2021/04/04 02:59:43;;;;;;;16.03;8.17;;;;;;;-0.01;78.96;95473.89;1779238;81;21563;-70
2021/04/04 03:02:16;;;;;;;16.20;9.23;;;;;;;-0.08;78.92;95469.84;1779338;81;21291;-69
2021/04/04 03:04:47;;;;;;;15.20;9.15;;;;;;;-0.05;78.81;95466.01;1779139;81;21133;-69
2021/04/04 03:07:25;;;;;;;14.20;8.30;;;;;;;0.00;78.46;95470.90;1779335;81;21305;-69
2021/04/04 03:09:54;;;;;;;18.33;9.63;;;;;;;0.02;78.42;95471.78;1779742;81;21122;-69
2021/04/04 03:12:26;;;;;;;17.30;10.53;;;;;;;-0.13;78.97;95472.77;1779344;81;21300;-69
2021/04/04 03:14:59;;;;;;;17.57;9.40;;;;;;;-0.14;79.58;95477.09;1779234;81;21264;-69
2021/04/04 03:17:30;;;;;;;16.90;10.07;;;;;;;-0.20;80.56;95482.55;1779287;80;21150;-69
2021/04/04 03:19:59;;;;;;;16.60;9.90;;;;;;;-0.16;80.01;95483.09;1779340;81;21279;-69
2021/04/04 03:22:28;;;;;;;14.23;8.83;;;;;;;-0.18;79.58;95480.45;1779431;81;21141;-69
2021/04/04 03:24:57;;;;;;;21.33;10.63;;;;;;;-0.12;79.46;95483.62;1779305;81;21299;-69
2021/04/04 03:27:25;;;;;;;16.07;7.50;;;;;;;-0.15;79.34;95487.02;1779323;80;21148;-69
2021/04/04 03:29:53;;;;;;;10.57;6.23;;;;;;;-0.19;79.10;95490.81;1779193;81;21307;-69
2021/04/04 03:32:21;;;;;;;13.37;7.87;;;;;;;-0.29;79.36;95494.49;1779591;81;21148;-69
2021/04/04 03:34:50;;;;;;;12.97;7.90;;;;;;;-0.28;79.50;95488.48;1779360;81;21563;-69
2021/04/04 03:37:19;;;;;;;14.00;8.23;;;;;;;-0.30;79.83;95491.89;1779427;81;21283;-69
2021/04/04 03:39:47;;;;;;;11.20;6.80;;;;;;;-0.36;80.10;95492.61;1779565;81;21568;-69
2021/04/04 03:42:15;;;;;;;12.30;7.73;;;;;;;-0.34;79.76;95493.95;1779055;81;21745;-69
2021/04/04 03:44:43;;;;;;;16.07;9.67;;;;;;;-0.34;79.73;95493.52;1757501;81;21129;-69
2021/04/04 03:47:12;;;;;;;27.27;14.67;;;;;;;-0.30;79.75;95491.89;1779492;81;21587;-69
2021/04/04 03:49:41;;;;;;;15.73;9.27;;;;;;;-0.21;79.74;95497.25;1779328;80;21679;-69
2021/04/04 03:52:09;;;;;;;12.43;7.33;;;;;;;-0.18;79.79;95498.59;1779364;81;21560;-69
2021/04/04 03:54:37;;;;;;;18.73;9.97;;;;;;;-0.16;79.70;95496.92;1779489;81;21524;-69
2021/04/04 03:57:06;;;;;;;16.97;9.83;;;;;;;-0.18;80.33;95502.92;1779216;81;21275;-69
2021/04/04 03:59:38;;;;;;;14.97;9.57;;;;;;;-0.14;81.02;95500.86;1779293;81;21141;-69
2021/04/04 04:02:07;;;;;;;15.27;8.73;;;;;;;-0.12;80.80;95504.36;1779315;81;21260;-69
2021/04/04 04:04:36;;;;;;;16.80;9.37;;;;;;;-0.07;81.56;95504.03;1779116;81;21260;-69
2021/04/04 04:07:05;;;;;;;17.67;9.57;;;;;;;-0.04;82.09;95502.36;1779378;81;21686;-69
2021/04/04 04:09:33;;;;;;;16.83;9.47;;;;;;;-0.02;82.57;95502.41;1779259;81;21276;-69
2021/04/04 04:12:03;;;;;;;17.10;10.13;;;;;;;-0.02;82.87;95507.17;1779435;81;21148;-69
2021/04/04 04:14:33;;;;;;;38.90;19.97;;;;;;;0.01;82.34;95506.78;1779165;80;21754;-69
2021/04/04 04:17:03;;;;;;;45.97;24.87;;;;;;;0.05;82.18;95509.48;1782843;80;21187;-69
2021/04/04 04:19:31;;;;;;;53.47;26.60;;;;;;;0.20;81.90;95508.48;1785271;80;21260;-69
2021/04/04 04:21:59;;;;;;;34.50;16.97;;;;;;;0.35;81.54;95513.50;1785352;80;21126;-69
2021/04/04 04:24:28;;;;;;;33.27;17.80;;;;;;;0.43;81.35;95512.81;1784798;80;21133;-69
2021/04/04 04:26:57;;;;;;;33.40;18.87;;;;;;;0.45;81.29;95512.83;1785078;80;21299;-69
2021/04/04 04:29:27;;;;;;;51.67;25.13;;;;;;;0.47;81.10;95512.44;1784994;80;21267;-70
2021/04/04 04:31:58;;;;;;;43.60;22.93;;;;;;;0.52;81.20;95517.72;1785125;80;21149;-69
2021/04/04 04:34:29;;;;;;;38.93;19.13;;;;;;;0.53;81.33;95517.77;1785264;80;21269;-69
2021/04/04 04:36:58;;;;;;;43.63;22.10;;;;;;;0.48;81.19;95521.09;1785314;80;21157;-69
2021/04/04 04:39:27;;;;;;;94.70;38.23;;;;;;;0.50;81.39;95527.20;1785312;80;21145;-69
2021/04/04 04:41:54;;;;;;;64.57;27.13;;;;;;;0.53;81.24;95522.95;1785244;80;21164;-69
2021/04/04 04:44:26;;;;;;;59.53;25.77;;;;;;;0.58;81.30;95539.49;1785009;80;21256;-70
2021/04/04 04:46:55;;;;;;;71.53;30.07;;;;;;;0.60;81.23;95535.17;1785184;80;21119;-69
2021/04/04 04:49:24;;;;;;;56.70;24.83;;;;;;;0.68;81.40;95535.34;1785027;80;21291;-69
2021/04/04 04:51:52;;;;;;;60.53;29.47;;;;;;;0.76;81.27;95537.66;1785028;80;21283;-69
2021/04/04 04:54:20;;;;;;;42.90;22.10;;;;;;;0.84;81.09;95544.28;1785210;80;21713;-69
2021/04/04 04:56:49;;;;;;;47.80;24.83;;;;;;;0.83;81.44;95544.71;1785053;80;21140;-69
2021/04/04 04:59:17;;;;;;;43.33;23.73;;;;;;;0.89;81.18;95541.77;1785242;80;21140;-69
2021/04/04 05:01:50;;;;;;;43.70;24.70;;;;;;;0.99;80.90;95547.58;1785019;80;21330;-69
2021/04/04 05:04:18;;;;;;;49.60;24.57;;;;;;;1.07;80.57;95549.87;1785159;80;21706;-69
2021/04/04 05:06:50;;;;;;;45.27;24.27;;;;;;;1.12;80.36;95544.77;1785187;80;21682;-69
2021/04/04 05:09:19;;;;;;;38.30;21.53;;;;;;;1.20;79.92;95542.73;1785262;80;21268;-69
2021/04/04 05:11:48;;;;;;;36.83;20.67;;;;;;;1.32;79.45;95545.09;1785023;80;21263;-69
2021/04/04 05:14:16;;;;;;;38.40;19.93;;;;;;;1.32;78.97;95547.27;1785217;80;21173;-69
2021/04/04 05:16:46;;;;;;;37.67;21.03;;;;;;;1.28;79.21;95547.62;1784999;80;21607;-69
2021/04/04 05:19:15;;;;;;;36.60;20.47;;;;;;;1.33;79.21;95550.30;1785013;80;21267;-69
2021/04/04 05:21:44;;;;;;;34.47;19.43;;;;;;;1.44;79.06;95554.39;1785225;80;21133;-69
2021/04/04 05:24:15;;;;;;;39.63;21.47;;;;;;;1.52;78.78;95557.98;1785299;80;21169;-69
2021/04/04 05:26:45;;;;;;;36.37;20.77;;;;;;;1.55;78.89;95559.75;1785250;80;21098;-69
2021/04/04 05:29:16;;;;;;;37.87;20.53;;;;;;;1.59;78.95;95552.42;1785195;80;21686;-69
2021/04/04 05:31:51;;;;;;;48.40;24.97;;;;;;;1.65;78.81;95559.91;1785227;80;21133;-69
2021/04/04 05:34:26;;;;;;;35.00;19.67;;;;;;;1.74;78.43;95561.79;1785115;80;21152;-69
2021/04/04 05:37:04;;;;;;;33.27;17.80;;;;;;;1.76;78.34;95556.59;1784604;80;21734;-69
2021/04/04 05:39:36;;;;;;;47.17;24.70;;;;;;;1.74;78.35;95557.89;1785197;80;21268;-69
2021/04/04 05:42:10;;;;;;;63.70;32.97;;;;;;;1.66;78.42;95562.08;1784635;80;21275;-69
2021/04/04 05:44:56;;;;;;;60.77;30.63;;;;;;;1.64;78.45;95564.67;1785214;80;21141;-69
2021/04/04 05:47:43;;;;;;;92.67;49.47;;;;;;;1.65;78.42;95565.11;1785214;80;21278;-69
2021/04/04 05:50:22;;;;;;;78.23;40.43;;;;;;;1.66;78.17;95569.88;1785101;80;21702;-69
2021/04/04 05:53:32;;;;;;;54.17;25.57;;;;;;;1.71;78.46;95562.62;1785041;80;21660;-69
2021/04/04 05:56:22;;;;;;;71.20;38.70;;;;;;;1.72;78.47;95563.05;1785125;80;21156;-69
2021/04/04 05:59:10;;;;;;;68.53;36.67;;;;;;;1.78;78.71;95564.86;1785104;80;21568;-69
2021/04/04 06:02:06;;;;;;;60.37;31.97;;;;;;;1.89;79.30;95562.41;1785020;80;21268;-69
2021/04/04 06:04:58;;;;;;;70.13;37.40;;;;;;;1.99;79.57;95559.11;1785380;80;21536;-69
2021/04/04 06:08:23;;;;;;;75.63;40.53;;;;;;;2.05;79.16;95559.18;1785125;80;21295;-69
2021/04/04 06:11:17;;;;;;;91.43;46.50;;;;;;;2.08;79.04;95559.65;1785229;80;21106;-69
2021/04/04 06:14:23;;;;;;;104.55;52.03;;;;;;;2.19;79.02;95563.69;1785500;80;21571;-69
2021/04/04 06:17:05;;;;;;;113.10;55.00;;;;;;;2.25;78.90;95559.88;1783427;80;21612;-69
2021/04/04 06:20:13;;;;;;;108.30;55.60;;;;;;;2.32;79.00;95556.50;1779313;80;21271;-69
2021/04/04 06:22:57;;;;;;;63.20;34.67;;;;;;;2.37;78.63;95558.73;1779865;81;21310;-69
2021/04/04 06:26:00;;;;;;;40.70;24.23;;;;;;;2.59;78.48;95558.11;1820189;79;22795;-69
2021/04/04 06:29:06;;;;;;;36.50;21.23;;;;;;;2.64;78.27;95563.38;1793002;80;21267;-69
2021/04/04 06:31:55;;;;;;;38.57;21.00;;;;;;;2.72;77.70;95566.97;1793478;80;21274;-69
2021/04/04 06:34:38;;;;;;;33.47;19.63;;;;;;;2.71;77.71;95572.14;1793554;80;21129;-69
2021/04/04 06:37:30;;;;;;;38.63;21.13;;;;;;;2.76;77.87;95571.33;1793874;80;21124;-70
2021/04/04 06:40:24;;;;;;;29.83;17.00;;;;;;;2.94;77.74;95575.86;1793684;80;21490;-69
2021/04/04 06:43:08;;;;;;;33.03;16.87;;;;;;;3.09;78.36;95582.97;1725000;83;21161;-69
2021/04/04 06:45:49;;;;;;;24.00;14.20;;;;;;;3.33;77.81;95577.12;1870321;76;23328;-68
2021/04/04 06:48:52;;;;;;;23.40;12.97;;;;;;;3.47;77.54;95579.84;1827654;78;21134;-68
2021/04/04 06:51:48;;;;;;;22.13;13.70;;;;;;;3.53;76.55;95580.31;1827345;78;21105;-68
2021/04/04 06:54:22;;;;;;;20.87;12.00;;;;;;;3.60;76.55;95588.23;1800082;78;21086;-68
2021/04/04 06:57:19;;;;;;;;;;;;;;;3.74;76.13;95590.08;1830431;78;21563;-68
2021/04/04 07:00:00;;;;;;;17.80;10.47;;;;;;;3.90;75.74;95576.25;1827639;78;20408;-68
2021/04/04 07:02:40;;;;;;;17.77;10.67;;;;;;;4.12;75.21;95577.27;1827552;78;21117;-68
2021/04/04 07:05:14;;;;;;;21.97;12.13;;;;;;;4.24;73.89;95579.96;1787919;80;21105;-68
2021/04/04 07:08:08;;;;;;;22.20;13.30;;;;;;;4.38;73.16;95582.63;1777078;81;21572;-68
2021/04/04 07:10:51;;;;;;;23.40;13.90;;;;;;;4.51;73.30;95583.16;1760696;81;21128;-68
2021/04/04 07:13:45;;;;;;;19.43;10.93;;;;;;;4.61;72.67;95586.69;1776883;81;21125;-68
2021/04/04 07:16:50;;;;;;;19.82;11.35;;;;;;;4.59;72.07;95581.02;1737584;81;21259;-68
2021/04/04 07:19:42;;;;;;;21.73;12.80;;;;;;;4.72;72.64;95587.59;1776928;81;21573;-68
2021/04/04 07:22:47;;;;;;;20.87;12.43;;;;;;;4.93;72.54;95575.45;1760496;81;21259;-68
2021/04/04 07:25:28;;;;;;;20.90;11.30;;;;;;;5.17;72.83;95579.45;1777122;81;21150;-68
2021/04/04 07:28:39;;;;;;;15.58;9.55;;;;;;;5.38;71.69;95581.21;1760351;81;21093;-68
2021/04/04 07:31:15;;;;;;;20.77;11.60;;;;;;;5.46;70.67;95581.22;1760555;81;21274;-68
2021/04/04 07:33:54;;;;;;;23.37;14.43;;;;;;;5.46;70.31;95581.22;1748959;81;21588;-68
2021/04/04 07:36:27;;;;;;;23.83;15.23;;;;;;;5.67;69.74;95583.00;1760693;81;21093;-68
2021/04/04 07:39:32;;;;;;;;;;;;;;;5.95;69.46;95590.44;1779758;81;21509;-68
2021/04/04 07:42:26;;;;;;;19.62;12.58;;;;;;;6.26;67.61;95583.84;1776988;81;20132;-68
2021/04/04 07:45:19;;;;;;;15.60;11.60;;;;;;;6.49;66.56;95583.77;1760396;81;21290;-68
2021/04/04 07:48:24;;;;;;;24.83;14.67;;;;;;;6.61;64.09;95588.98;1777124;81;21539;-68
2021/04/04 07:51:13;;;;;;;22.73;15.10;;;;;;;6.61;64.95;95590.73;1760467;81;21262;-68
2021/04/04 07:53:49;;;;;;;22.40;14.90;;;;;;;6.64;65.44;95592.89;1777211;81;21163;-68
2021/04/04 07:56:23;;;;;;;17.57;11.60;;;;;;;6.78;64.47;95595.90;1759491;81;21566;-68
2021/04/04 07:58:57;;;;;;;18.07;12.47;;;;;;;6.75;64.00;95591.53;1776650;81;21647;-68
2021/04/04 08:01:42;;;;;;;19.73;12.37;;;;;;;6.55;63.42;95600.81;1759897;81;21132;-68
2021/04/04 08:04:30;;;;;;;18.90;11.93;;;;;;;6.46;64.08;95600.83;1745038;81;21150;-68
2021/04/04 08:07:12;;;;;;;16.87;10.90;;;;;;;6.52;63.59;95596.00;1759842;81;21109;-68
2021/04/04 08:10:12;;;;;;;16.47;11.90;;;;;;;6.81;62.70;95600.71;1775481;81;21146;-68
2021/04/04 08:12:51;;;;;;;11.27;7.80;;;;;;;7.11;62.64;95598.39;1759822;81;21144;-68
2021/04/04 08:15:36;;;;;;;14.17;9.43;;;;;;;7.29;60.50;95601.34;1759693;81;21100;-68
2021/04/04 08:18:04;;;;;;;17.40;10.73;;;;;;;7.42;59.58;95602.59;1755785;81;21590;-68
2021/04/04 08:20:43;;;;;;;18.33;11.40;;;;;;;7.55;59.71;95599.86;1776604;81;21544;-68
2021/04/04 08:23:38;;;;;;;14.20;9.93;;;;;;;7.60;58.73;95598.52;1759910;81;21140;-68
2021/04/04 08:26:17;;;;;;;14.17;10.47;;;;;;;7.55;58.29;95599.86;1756002;81;21117;-68
2021/04/04 08:28:52;;;;;;;18.70;11.93;;;;;;;7.39;58.70;95600.86;1744655;81;21185;-68
2021/04/04 08:31:44;;;;;;;18.83;13.03;;;;;;;7.35;59.53;95598.67;1759519;81;21128;-68
2021/04/04 08:34:18;;;;;;;16.33;10.90;;;;;;;7.37;59.65;95603.48;1776456;81;21576;-68
2021/04/04 08:37:07;;;;;;;12.03;8.37;;;;;;;7.21;60.34;95607.09;1759944;81;21135;-69
2021/04/04 08:39:35;;;;;;;11.03;7.17;;;;;;;7.11;58.21;95606.26;1759342;81;21609;-68
2021/04/04 08:42:06;;;;;;;10.47;7.07;;;;;;;7.03;57.47;95607.16;1759875;81;21148;-68
2021/04/04 08:45:04;;;;;;;16.37;10.33;;;;;;;6.98;58.87;95608.93;1761202;81;21140;-68
2021/04/04 08:47:35;;;;;;;14.53;10.23;;;;;;;7.04;60.53;95611.55;1779605;81;21114;-68
2021/04/04 08:50:11;;;;;;;16.03;11.23;;;;;;;6.91;62.74;95601.10;1765742;81;21119;-68
2021/04/04 08:53:16;;;;;;;17.47;11.03;;;;;;;7.02;62.07;95603.67;1779833;81;21117;-68
2021/04/04 08:55:47;;;;;;;19.03;12.90;;;;;;;7.12;61.33;95604.50;1765755;81;21115;-68
2021/04/04 08:58:26;;;;;;;18.53;13.37;;;;;;;6.72;61.60;95606.84;1779575;81;21575;-68
2021/04/04 09:00:57;;;;;;;16.10;11.13;;;;;;;6.52;62.15;95606.04;1765134;81;21128;-68
2021/04/04 09:03:25;;;;;;;20.67;13.03;;;;;;;6.47;62.59;95603.42;1779506;81;21142;-68
2021/04/04 09:06:02;;;;;;;18.27;12.97;;;;;;;6.43;63.21;95597.77;1765314;81;21100;-68
2021/04/04 09:08:35;;;;;;;15.90;12.00;;;;;;;6.34;63.38;95596.48;1779556;80;21149;-68
2021/04/04 09:11:03;;;;;;;19.10;12.43;;;;;;;6.44;63.12;95596.02;1738071;81;21132;-68
2021/04/04 09:13:36;;;;;;;16.23;11.13;;;;;;;6.56;63.19;95591.19;1779601;81;21150;-68
2021/04/04 09:16:15;;;;;;;18.13;12.30;;;;;;;6.49;63.44;95593.81;1765682;81;21129;-68
2021/04/04 09:18:52;;;;;;;14.43;11.27;;;;;;;6.79;63.91;95589.80;1779534;81;21855;-69
2021/04/04 09:21:23;;;;;;;14.03;10.63;;;;;;;7.17;61.41;95591.36;1765422;81;21093;-68
2021/04/04 09:23:54;;;;;;;18.57;13.27;;;;;;;7.56;59.81;95590.26;1779753;81;21158;-68
2021/04/04 09:26:25;;;;;;;15.50;11.57;;;;;;;7.81;58.86;95577.78;1765525;81;21526;-68
2021/04/04 09:28:54;;;;;;;18.60;11.50;;;;;;;7.81;57.90;95577.78;1779570;81;21133;-68
2021/04/04 09:31:32;;;;;;;15.23;10.50;;;;;;;7.82;58.11;95579.99;1765507;81;21129;-69
2021/04/04 09:34:10;;;;;;;13.27;9.13;;;;;;;7.73;54.53;95580.47;1779599;81;21133;-68
2021/04/04 09:36:42;;;;;;;11.33;7.83;;;;;;;7.76;54.16;95587.03;1765548;81;21112;-68
2021/04/04 09:39:17;;;;;;;13.30;9.67;;;;;;;7.97;54.06;95575.92;1780045;80;21094;-68
2021/04/04 09:41:47;;;;;;;11.97;8.70;;;;;;;8.15;54.38;95577.50;1765476;81;21527;-68
2021/04/04 09:44:15;;;;;;;12.17;8.97;;;;;;;8.45;54.29;95560.13;1753691;81;21198;-68
2021/04/04 09:46:54;;;;;;;15.47;10.47;;;;;;;8.73;56.26;95562.90;1765296;81;21595;-69
2021/04/04 09:49:39;;;;;;;14.07;10.87;;;;;;;8.85;51.56;95562.30;1779823;81;21588;-68
2021/04/04 09:52:26;;;;;;;16.63;12.20;;;;;;;8.53;52.87;95561.81;1732741;81;21585;-69
2021/04/04 09:55:06;;;;;;;15.57;11.00;;;;;;;8.34;52.62;95562.41;1779778;81;21118;-68
2021/04/04 09:57:46;;;;;;;18.50;13.33;;;;;;;8.26;53.59;95558.54;1734365;81;21177;-69
2021/04/04 10:00:24;;;;;;;13.10;8.97;;;;;;;8.42;53.60;95556.23;1779658;80;21310;-68
2021/04/04 10:02:56;;;;;;;17.43;11.07;;;;;;;8.44;51.35;95547.88;1765662;81;21117;-68
2021/04/04 10:05:39;;;;;;;19.33;12.07;;;;;;;8.51;50.59;95549.98;1779525;80;21145;-68
2021/04/04 10:08:17;;;;;;;13.25;9.50;;;;;;;8.39;51.25;95550.08;1765720;81;21117;-68
2021/04/04 10:10:49;;;;;;;13.20;8.93;;;;;;;8.39;53.55;95554.02;1765445;81;21151;-68
2021/04/04 10:13:18;;;;;;;11.53;8.90;;;;;;;8.44;51.84;95549.20;1765638;81;21124;-68
2021/04/04 10:15:53;;;;;;;11.07;8.17;;;;;;;8.52;52.62;95552.20;1737840;81;21567;-68
2021/04/04 10:18:24;;;;;;;11.20;8.70;;;;;;;8.51;51.14;95548.67;1765373;81;21093;-69
2021/04/04 10:20:55;;;;;;;8.60;6.97;;;;;;;8.40;50.52;95549.25;1765487;81;21503;-68
2021/04/04 10:23:32;;;;;;;12.20;7.23;;;;;;;8.34;51.48;95549.26;1765346;81;21115;-68
2021/04/04 10:26:06;;;;;;;11.60;8.17;;;;;;;8.22;51.98;95545.02;1765678;81;21089;-68
2021/04/04 10:28:49;;;;;;;12.17;9.10;;;;;;;8.25;51.45;95546.30;1765478;81;21545;-68
2021/04/04 10:31:19;;;;;;;11.90;8.65;;;;;;;8.31;50.56;95546.22;1765503;81;21124;-68
2021/04/04 10:33:59;;;;;;;9.93;7.47;;;;;;;8.11;48.80;95543.80;1765271;81;21159;-69
2021/04/04 10:36:28;;;;;;;11.37;8.10;;;;;;;8.12;50.78;95543.38;1765489;81;21127;-68
2021/04/04 10:38:57;;;;;;;10.97;7.37;;;;;;;8.08;48.61;95543.83;1765366;81;21159;-68
2021/04/04 10:41:32;;;;;;;10.63;8.10;;;;;;;7.99;49.11;95532.12;1765370;81;21155;-68
2021/04/04 10:44:00;;;;;;;9.53;7.27;;;;;;;7.97;49.23;95537.82;1765500;81;21148;-68
2021/04/04 10:46:31;;;;;;;10.23;6.90;;;;;;;7.91;48.86;95539.17;1765461;81;21128;-68
2021/04/04 10:49:01;;;;;;;13.03;8.27;;;;;;;7.88;49.83;95540.52;1765559;81;21088;-68
2021/04/04 10:51:30;;;;;;;11.73;7.50;;;;;;;7.84;49.43;95529.19;1765301;81;21131;-68
2021/04/04 10:54:00;;;;;;;7.10;5.17;;;;;;;7.77;49.15;95526.18;1765540;81;21147;-68
2021/04/04 10:56:30;;;;;;;11.43;6.93;;;;;;;7.71;49.32;95529.73;1765225;81;21136;-68
2021/04/04 10:59:01;;;;;;;11.80;7.97;;;;;;;7.65;49.60;95525.83;1765584;81;21120;-68
2021/04/04 11:01:31;;;;;;;9.20;6.40;;;;;;;7.64;49.94;95528.04;1765653;81;21162;-68
2021/04/04 11:04:01;;;;;;;15.50;9.53;;;;;;;7.65;50.64;95523.66;1765178;81;21139;-68
2021/04/04 11:06:28;;;;;;;13.63;8.53;;;;;;;7.65;49.60;95524.52;1765368;81;21147;-68
2021/04/04 11:08:59;;;;;;;12.50;8.93;;;;;;;7.56;48.62;95516.73;1765320;81;21212;-68
2021/04/04 11:11:28;;;;;;;10.10;7.53;;;;;;;7.51;48.80;95520.70;1765596;81;21570;-68
2021/04/04 11:13:59;;;;;;;10.43;7.73;;;;;;;7.41;49.59;95516.41;1765536;81;21155;-68
2021/04/04 11:16:28;;;;;;;11.93;8.23;;;;;;;7.47;48.34;95514.17;1765645;81;21121;-68
2021/04/04 11:18:58;;;;;;;11.80;8.10;;;;;;;7.46;50.36;95515.94;1765468;81;21167;-68
2021/04/04 11:21:34;;;;;;;9.83;7.20;;;;;;;7.51;51.90;95512.83;1765361;81;21124;-69
2021/04/04 11:24:03;;;;;;;18.23;10.97;;;;;;;7.54;49.90;95516.73;1765825;81;21156;-68
2021/04/04 11:26:35;;;;;;;13.43;10.60;;;;;;;7.48;52.87;95515.91;1779735;81;21574;-68
2021/04/04 11:29:12;;;;;;;13.90;11.17;;;;;;;7.36;53.85;95524.31;1765264;81;21176;-69
2021/04/04 11:31:51;;;;;;;11.23;8.47;;;;;;;7.29;53.56;95526.55;1779872;81;21122;-69
2021/04/04 11:34:32;;;;;;;12.50;9.13;;;;;;;7.20;53.90;95525.73;1764968;81;21539;-68
2021/04/04 11:37:18;;;;;;;11.07;8.37;;;;;;;7.20;53.18;95520.48;1779653;81;21146;-68
2021/04/04 11:40:11;;;;;;;11.27;8.47;;;;;;;7.17;51.55;95517.89;1765674;81;21546;-68
2021/04/04 11:42:42;;;;;;;12.83;9.87;;;;;;;7.15;51.38;95521.38;1779742;81;21544;-68
2021/04/04 11:45:12;;;;;;;14.67;10.50;;;;;;;7.19;51.73;95517.45;1765565;81;21105;-69
2021/04/04 11:47:41;;;;;;;11.97;9.17;;;;;;;7.17;52.73;95514.82;1779405;81;21153;-69
2021/04/04 11:50:25;;;;;;;10.43;8.63;;;;;;;7.16;53.42;95511.78;1765475;81;21132;-68
2021/04/04 11:52:53;;;;;;;13.13;9.70;;;;;;;7.18;53.82;95518.31;1779846;81;21122;-68
2021/04/04 11:55:21;;;;;;;12.27;9.10;;;;;;;7.25;54.22;95509.07;1765873;81;21140;-68
2021/04/04 11:57:49;;;;;;;11.87;9.10;;;;;;;7.35;53.64;95506.80;1779635;81;21130;-68
2021/04/04 12:00:21;;;;;;;11.43;9.13;;;;;;;7.48;54.43;95501.02;1765419;81;21144;-68
2021/04/04 12:02:59;;;;;;;12.63;8.63;;;;;;;7.58;51.85;95496.56;1779529;80;21555;-69
2021/04/04 12:05:35;;;;;;;12.47;9.90;;;;;;;7.61;52.62;95497.88;1765734;81;21140;-68
2021/04/04 12:08:04;;;;;;;8.47;6.47;;;;;;;7.73;50.77;95498.19;1764014;81;21161;-69
2021/04/04 12:10:40;;;;;;;10.90;8.13;;;;;;;7.84;51.42;95488.89;1779619;81;21588;-69